createdAt,value
2022-11-29T00:00:28.875Z,23.65
2022-11-29T00:05:30.468Z,21.55
2022-11-29T00:10:32.048Z,20.90
2022-11-29T00:15:37.379Z,22.83
2022-11-29T00:20:40.135Z,22.55
2022-11-29T00:25:41.703Z,23.73
2022-11-29T00:30:43.364Z,21.67
2022-11-29T00:35:44.985Z,20.75
2022-11-29T00:40:51.402Z,21.38
2022-11-29T00:45:52.995Z,21.42
2022-11-29T00:50:54.617Z,22.20
2022-11-29T00:55:56.522Z,20.60
2022-11-29T01:00:58.696Z,19.90
2022-11-29T01:06:12.410Z,20.13
2022-11-29T01:11:20.556Z,19.73
2022-11-29T01:16:22.647Z,20.15
2022-11-29T01:21:24.810Z,22.50
2022-11-29T01:26:28.735Z,22.90
2022-11-29T01:31:35.979Z,25.75
2022-11-29T01:36:37.629Z,23.60
2022-11-29T01:41:39.550Z,24.40
2022-11-29T01:46:43.985Z,24.95
2022-11-29T01:51:51.591Z,23.52
2022-11-29T01:56:53.411Z,24.05
2022-11-29T02:02:05.268Z,23.75
2022-11-29T02:07:07.104Z,24.00
2022-11-29T02:12:36.485Z,24.67
2022-11-29T02:18:04.179Z,23.60
2022-11-29T02:23:47.236Z,24.23
2022-11-29T02:29:19.516Z,23.98
2022-11-29T02:34:51.584Z,23.90
2022-11-29T02:40:20.771Z,26.35
2022-11-29T02:50:57.852Z,25.02
2022-11-29T02:56:24.640Z,25.63
2022-11-29T03:02:05.523Z,27.60
2022-11-29T03:07:19.106Z,27.40
2022-11-29T03:12:43.390Z,24.15
2022-11-29T03:18:23.720Z,26.83
2022-11-29T03:23:33.803Z,26.95
2022-11-29T03:28:41.513Z,28.75
2022-11-29T03:34:11.007Z,26.93
2022-11-29T03:39:18.767Z,27.92
2022-11-29T03:44:27.146Z,29.93
2022-11-29T03:49:46.100Z,28.63
2022-11-29T04:00:10.336Z,29.55
2022-11-29T04:05:53.265Z,28.73
2022-11-29T04:10:58.236Z,29.17
2022-11-29T04:16:18.158Z,29.50
2022-11-29T04:21:38.343Z,27.15
2022-11-29T04:27:16.905Z,27.38
2022-11-29T04:32:54.826Z,29.13
2022-11-29T04:38:23.211Z,28.75
2022-11-29T04:44:02.435Z,28.53
2022-11-29T04:49:09.728Z,28.27
2022-11-29T04:54:29.638Z,28.67
2022-11-29T04:59:34.103Z,30.40
2022-11-29T05:04:50.656Z,29.10
2022-11-29T05:10:01.284Z,28.70
2022-11-29T05:15:39.378Z,28.05
2022-11-29T05:21:13.154Z,28.20
2022-11-29T05:26:22.960Z,30.08
2022-11-29T05:31:39.823Z,28.30
2022-11-29T05:36:44.467Z,28.52
2022-11-29T05:42:08.429Z,28.90
2022-11-29T05:47:11.277Z,28.90
2022-11-29T05:52:19.112Z,28.17
2022-11-29T05:57:37.152Z,28.73
2022-11-29T06:02:47.713Z,29.53
2022-11-29T06:08:19.550Z,26.98
2022-11-29T06:13:47.516Z,27.08
2022-11-29T06:19:01.058Z,27.88
2022-11-29T06:24:26.298Z,28.90
2022-11-29T06:29:54.912Z,29.23
2022-11-29T06:35:03.111Z,28.80
2022-11-29T06:40:06.510Z,28.45
2022-11-29T06:45:12.228Z,28.27
2022-11-29T06:50:19.911Z,26.85
2022-11-29T06:56:00.602Z,27.73
2022-11-29T07:01:31.966Z,26.67
2022-11-29T07:06:35.171Z,28.08
2022-11-29T07:11:37.500Z,28.35
2022-11-29T07:17:04.261Z,26.73
2022-11-29T07:22:37.996Z,26.30
2022-11-29T07:27:52.289Z,25.55
2022-11-29T07:33:17.314Z,24.77
2022-11-29T07:38:49.542Z,24.60
2022-11-29T07:44:00.711Z,24.20
2022-11-29T07:49:02.477Z,24.48
2022-11-29T07:54:05.330Z,23.67
2022-11-29T07:59:11.428Z,22.55
2022-11-29T08:04:13.941Z,23.15
2022-11-29T08:09:15.550Z,23.48
2022-11-29T08:14:17.151Z,21.98
2022-11-29T08:19:18.726Z,21.85
2022-11-29T08:24:20.373Z,22.25
2022-11-29T08:29:21.986Z,20.35
2022-11-29T08:34:24.759Z,22.85
2022-11-29T08:39:26.349Z,20.52
2022-11-29T08:44:28.198Z,21.67
2022-11-29T08:49:29.872Z,20.23
2022-11-29T08:54:31.845Z,19.55
2022-11-29T08:59:33.704Z,20.48
2022-11-29T09:04:35.306Z,21.08
2022-11-29T09:09:36.902Z,20.85
2022-11-29T09:14:38.542Z,20.90
2022-11-29T09:19:40.344Z,19.35
2022-11-29T09:24:42.615Z,19.73
2022-11-29T09:29:44.484Z,19.48
2022-11-29T09:34:46.529Z,20.70
2022-11-29T09:39:48.581Z,19.33
2022-11-29T09:45:21.204Z,20.20
2022-11-29T09:50:36.430Z,20.50
2022-11-29T09:55:53.165Z,19.73
2022-11-29T10:01:03.188Z,20.85
2022-11-29T10:06:16.283Z,18.33
2022-11-29T10:11:23.600Z,20.77
2022-11-29T10:16:44.632Z,21.33
2022-11-29T10:22:15.945Z,20.77
2022-11-29T10:27:23.780Z,19.85
2022-11-29T10:32:30.802Z,21.85
2022-11-29T10:37:32.859Z,20.38
2022-11-29T10:42:49.420Z,20.75
2022-11-29T10:47:54.065Z,19.20
2022-11-29T10:53:03.663Z,19.17
2022-11-29T10:58:16.049Z,20.08
2022-11-29T11:03:27.519Z,18.88
2022-11-29T11:08:30.643Z,18.70
2022-11-29T11:13:32.881Z,19.70
2022-11-29T11:18:35.829Z,20.05
2022-11-29T11:23:45.426Z,19.90
2022-11-29T11:28:46.973Z,20.10
2022-11-29T11:33:48.697Z,20.20
2022-11-29T11:38:56.259Z,21.23
2022-11-29T11:44:00.196Z,21.15
2022-11-29T11:49:01.834Z,19.48
2022-11-29T11:54:03.624Z,20.02
2022-11-29T11:59:05.290Z,19.77
2022-11-29T12:04:25.529Z,20.50
2022-11-29T12:09:39.550Z,19.85
2022-11-29T12:15:02.353Z,21.17
2022-11-29T12:20:17.692Z,21.00
2022-11-29T12:25:27.056Z,20.52
2022-11-29T12:30:28.777Z,19.52
2022-11-29T12:35:36.469Z,21.23
2022-11-29T12:40:52.369Z,20.23
2022-11-29T12:45:59.003Z,18.58
2022-11-29T12:51:18.409Z,19.25
2022-11-29T12:56:37.046Z,19.50
2022-11-29T13:02:00.314Z,18.90
2022-11-29T13:07:24.474Z,19.67
2022-11-29T13:12:47.968Z,19.05
2022-11-29T13:18:21.461Z,19.75
2022-11-29T13:24:00.699Z,19.63
2022-11-29T13:29:03.064Z,21.55
2022-11-29T13:34:10.698Z,21.27
2022-11-29T13:39:32.288Z,21.35
2022-11-29T13:44:45.872Z,21.23
2022-11-29T13:50:04.360Z,22.35
2022-11-29T13:55:11.944Z,21.87
2022-11-29T14:00:36.172Z,23.23
2022-11-29T14:05:39.455Z,20.92
2022-11-29T14:10:48.146Z,21.48
2022-11-29T14:20:58.184Z,20.70
2022-11-29T14:26:00.775Z,21.75
2022-11-29T14:31:04.010Z,21.95
2022-11-29T14:36:14.896Z,22.73
2022-11-29T14:41:58.061Z,22.20
2022-11-29T14:47:13.740Z,22.70
2022-11-29T14:52:15.340Z,22.83
2022-11-29T14:57:47.873Z,23.25
2022-11-29T15:03:06.290Z,23.02
2022-11-29T15:08:29.368Z,17.02
2022-11-29T15:13:36.502Z,23.55
2022-11-29T15:18:53.484Z,25.63
2022-11-29T15:24:03.088Z,24.08
2022-11-29T15:29:17.027Z,24.08
2022-11-29T15:34:31.094Z,25.80
2022-11-29T15:39:35.266Z,25.23
2022-11-29T15:44:37.261Z,24.15
2022-11-29T15:49:38.845Z,24.17
2022-11-29T15:54:44.406Z,24.75
2022-11-29T15:59:53.096Z,26.27
2022-11-29T16:05:20.185Z,25.35
2022-11-29T16:10:46.156Z,23.20
2022-11-29T16:15:48.088Z,24.98
2022-11-29T16:21:04.353Z,25.55
2022-11-29T16:26:23.077Z,24.02
2022-11-29T16:31:36.038Z,22.23
2022-11-29T16:36:37.827Z,22.67
2022-11-29T16:41:39.561Z,22.60
2022-11-29T16:46:41.517Z,24.00
2022-11-29T16:51:48.128Z,22.45
2022-11-29T16:56:51.909Z,21.48
2022-11-29T17:01:54.429Z,22.88
2022-11-29T17:06:56.750Z,23.42
2022-11-29T17:12:01.660Z,24.85
2022-11-29T17:17:03.593Z,22.63
2022-11-29T17:22:05.460Z,23.98
2022-11-29T17:27:07.164Z,24.58
2022-11-29T17:32:08.861Z,25.98
2022-11-29T17:37:10.580Z,24.98
2022-11-29T17:42:12.365Z,24.50
2022-11-29T17:47:14.281Z,26.42
2022-11-29T17:52:15.920Z,26.52
2022-11-29T17:57:18.347Z,30.08
2022-11-29T18:02:19.987Z,31.85
2022-11-29T18:07:21.774Z,27.35
2022-11-29T18:12:23.673Z,28.00
2022-11-29T18:17:25.423Z,26.75
2022-11-29T18:22:27.080Z,27.13
2022-11-29T18:27:28.713Z,27.98
2022-11-29T18:32:30.624Z,28.58
2022-11-29T18:38:06.485Z,27.25
2022-11-29T18:42:53.839Z,29.92
2022-11-29T18:47:55.477Z,27.92
2022-11-29T18:52:58.577Z,32.22
2022-11-29T18:58:00.318Z,27.60
2022-11-29T19:03:01.955Z,27.10
2022-11-29T19:08:03.724Z,26.15
2022-11-29T19:13:05.384Z,28.20
2022-11-29T19:18:06.968Z,25.55
2022-11-29T19:23:08.556Z,25.75
2022-11-29T19:28:14.110Z,27.20
2022-11-29T19:33:16.153Z,26.58
2022-11-29T19:38:18.090Z,26.30
2022-11-29T19:43:19.959Z,23.25
2022-11-29T19:48:22.370Z,23.67
2022-11-29T19:53:24.020Z,26.42
2022-11-29T19:58:25.592Z,29.30
2022-11-29T20:03:30.103Z,30.95
2022-11-29T20:08:31.863Z,29.10
2022-11-29T20:13:33.496Z,26.38
2022-11-29T20:18:36.832Z,27.70
2022-11-29T20:23:39.752Z,28.00
2022-11-29T20:28:41.828Z,27.02
2022-11-29T20:33:45.818Z,35.40
2022-11-29T20:39:18.570Z,29.95
2022-11-29T20:44:30.644Z,30.40
2022-11-29T20:49:32.428Z,31.85
2022-11-29T20:54:34.243Z,30.77
2022-11-29T20:59:35.840Z,30.35
2022-11-29T21:04:37.662Z,31.83
2022-11-29T21:09:39.271Z,31.92
2022-11-29T21:14:41.332Z,27.42
2022-11-29T21:19:43.360Z,28.90
2022-11-29T21:25:05.212Z,30.17
2022-11-29T21:30:16.240Z,29.35
2022-11-29T21:35:18.153Z,30.00
2022-11-29T21:40:19.887Z,28.95
2022-11-29T21:45:21.444Z,33.05
2022-11-29T21:50:22.990Z,31.33
2022-11-29T21:55:31.552Z,30.00
2022-11-29T22:00:37.441Z,29.02
2022-11-29T22:05:39.358Z,31.30
2022-11-29T22:10:41.198Z,32.92
2022-11-29T22:15:42.807Z,30.65
2022-11-29T22:20:47.140Z,29.90
2022-11-29T22:25:48.724Z,29.40
2022-11-29T22:30:50.315Z,35.90
2022-11-29T22:35:52.104Z,32.50
2022-11-29T22:40:53.711Z,33.65
2022-11-29T22:45:55.534Z,33.38
2022-11-29T22:51:06.229Z,33.00
2022-11-29T22:56:10.304Z,32.83
2022-11-29T23:01:14.762Z,31.42
2022-11-29T23:06:18.720Z,30.48
2022-11-29T23:11:23.380Z,32.88
2022-11-29T23:16:27.885Z,39.10
2022-11-29T23:21:35.365Z,61.28
2022-11-29T23:26:40.229Z,55.72
2022-11-29T23:31:42.197Z,72.15
2022-11-29T23:36:48.259Z,37.58
2022-11-29T23:41:53.084Z,38.92
2022-11-29T23:46:54.656Z,49.33
2022-11-29T23:51:56.240Z,54.22
2022-11-29T23:56:58.917Z,56.63
